首页
METAR-TAF:

METAR-TAF

机场 :

奧西耶克, 克罗地亚

纬度: 45-27N, 经度: 018-48E, 海拔: 88米

当前天气观测

该预报发布于17分钟前的05:30 UTC
风速6节,风向南转西南
温度 7°C
湿度 93%
气压 1019 hPa
能見度: 8000

METAR: LDOS 230530Z 20006KT 8000 NSC 07/06 Q1019

时间: 07:47 (05:47 UTC)

预报

该预报发布于22分钟前的05:25 UTC
预报有效从23日的 06点(UTC)到 24日的 06点(UTC)
风速9节,风向南转西南
能见度10公里或以上
1500米以下无云,无积雨云

TAF: LDOS 230525Z 2306/2406 21009KT CAVOK TX22/2313Z TN10/2306Z

超过4000个机场的气象观测和天气预报(METAR&TAF报告)。

可查询的气象台以黄色和红色小点在地图上表示。

将鼠标移到小点上方,可查看气象台名称。

然后点击查看天气观测和预报。

如需切换地图:点击带黑十字的绿色按钮放大地图;点击带横线的绿色按钮缩小地图;或者点击绿色箭头查看邻近地区的地图。


METAR-TAF: